sensor_id;sensor_type;location;lat;lon;timestamp;P1;durP1;ratioP1;P2;durP2;ratioP2
84780;SDS011;75011;50.086;19.886;2024-01-30T00:00:09;101.03;;;43.90;;
84780;SDS011;75011;50.086;19.886;2024-01-30T00:03:10;116.35;;;47.38;;
84780;SDS011;75011;50.086;19.886;2024-01-30T00:06:11;106.50;;;45.75;;
84780;SDS011;75011;50.086;19.886;2024-01-30T00:09:12;107.95;;;46.25;;
84780;SDS011;75011;50.086;19.886;2024-01-30T00:12:12;111.90;;;48.22;;
84780;SDS011;75011;50.086;19.886;2024-01-30T00:15:14;112.22;;;45.95;;
84780;SDS011;75011;50.086;19.886;2024-01-30T00:18:15;99.80;;;42.67;;
84780;SDS011;75011;50.086;19.886;2024-01-30T00:21:15;106.15;;;45.97;;
84780;SDS011;75011;50.086;19.886;2024-01-30T00:24:17;101.47;;;44.35;;
84780;SDS011;75011;50.086;19.886;2024-01-30T00:27:17;103.10;;;43.72;;
84780;SDS011;75011;50.086;19.886;2024-01-30T00:30:19;108.25;;;45.83;;
84780;SDS011;75011;50.086;19.886;2024-01-30T00:33:20;109.38;;;45.22;;
84780;SDS011;75011;50.086;19.886;2024-01-30T00:36:20;108.50;;;46.05;;
84780;SDS011;75011;50.086;19.886;2024-01-30T00:39:21;111.53;;;46.20;;
84780;SDS011;75011;50.086;19.886;2024-01-30T00:42:21;107.28;;;43.53;;
84780;SDS011;75011;50.086;19.886;2024-01-30T00:45:23;116.03;;;48.35;;
84780;SDS011;75011;50.086;19.886;2024-01-30T00:48:23;115.50;;;46.55;;
84780;SDS011;75011;50.086;19.886;2024-01-30T00:51:24;127.85;;;49.72;;
84780;SDS011;75011;50.086;19.886;2024-01-30T00:54:24;126.20;;;50.40;;
84780;SDS011;75011;50.086;19.886;2024-01-30T00:57:25;112.45;;;45.88;;
84780;SDS011;75011;50.086;19.886;2024-01-30T01:00:27;122.47;;;47.85;;
84780;SDS011;75011;50.086;19.886;2024-01-30T01:03:27;129.15;;;50.03;;
84780;SDS011;75011;50.086;19.886;2024-01-30T01:06:27;140.25;;;53.55;;
84780;SDS011;75011;50.086;19.886;2024-01-30T01:09:28;126.10;;;50.83;;
84780;SDS011;75011;50.086;19.886;2024-01-30T01:12:28;123.47;;;51.55;;
84780;SDS011;75011;50.086;19.886;2024-01-30T01:15:30;125.97;;;49.70;;
84780;SDS011;75011;50.086;19.886;2024-01-30T01:18:31;137.38;;;52.67;;
84780;SDS011;75011;50.086;19.886;2024-01-30T01:21:31;145.38;;;55.50;;
84780;SDS011;75011;50.086;19.886;2024-01-30T01:24:32;128.70;;;52.08;;
84780;SDS011;75011;50.086;19.886;2024-01-30T01:27:32;125.43;;;49.55;;
84780;SDS011;75011;50.086;19.886;2024-01-30T01:30:34;115.75;;;48.63;;
84780;SDS011;75011;50.086;19.886;2024-01-30T01:33:34;111.57;;;45.45;;
84780;SDS011;75011;50.086;19.886;2024-01-30T01:36:35;122.45;;;50.22;;
84780;SDS011;75011;50.086;19.886;2024-01-30T01:39:35;128.57;;;49.92;;
84780;SDS011;75011;50.086;19.886;2024-01-30T01:42:36;125.07;;;50.58;;
84780;SDS011;75011;50.086;19.886;2024-01-30T01:45:38;129.00;;;52.08;;
84780;SDS011;75011;50.086;19.886;2024-01-30T01:48:38;135.38;;;48.72;;
84780;SDS011;75011;50.086;19.886;2024-01-30T01:51:39;131.73;;;53.78;;
84780;SDS011;75011;50.086;19.886;2024-01-30T01:54:41;125.10;;;51.85;;
84780;SDS011;75011;50.086;19.886;2024-01-30T01:57:41;123.68;;;49.67;;
84780;SDS011;75011;50.086;19.886;2024-01-30T02:00:43;123.88;;;51.20;;
84780;SDS011;75011;50.086;19.886;2024-01-30T02:03:44;128.80;;;51.78;;
84780;SDS011;75011;50.086;19.886;2024-01-30T02:06:45;146.27;;;52.20;;
84780;SDS011;75011;50.086;19.886;2024-01-30T02:09:46;137.18;;;53.60;;
84780;SDS011;75011;50.086;19.886;2024-01-30T02:12:46;126.57;;;52.40;;
84780;SDS011;75011;50.086;19.886;2024-01-30T02:15:50;137.88;;;52.00;;
84780;SDS011;75011;50.086;19.886;2024-01-30T02:18:51;130.68;;;50.85;;
84780;SDS011;75011;50.086;19.886;2024-01-30T02:21:52;130.45;;;50.20;;
84780;SDS011;75011;50.086;19.886;2024-01-30T02:24:54;127.43;;;52.88;;
84780;SDS011;75011;50.086;19.886;2024-01-30T02:27:54;129.95;;;50.45;;
84780;SDS011;75011;50.086;19.886;2024-01-30T02:30:55;134.00;;;50.75;;
84780;SDS011;75011;50.086;19.886;2024-01-30T02:33:55;122.63;;;51.88;;
84780;SDS011;75011;50.086;19.886;2024-01-30T02:36:57;137.35;;;50.30;;
84780;SDS011;75011;50.086;19.886;2024-01-30T02:39:57;128.52;;;50.22;;
84780;SDS011;75011;50.086;19.886;2024-01-30T02:42:58;104.50;;;46.70;;
84780;SDS011;75011;50.086;19.886;2024-01-30T02:45:59;115.50;;;46.25;;
84780;SDS011;75011;50.086;19.886;2024-01-30T02:49:00;119.03;;;44.33;;
84780;SDS011;75011;50.086;19.886;2024-01-30T02:52:02;118.82;;;46.25;;
84780;SDS011;75011;50.086;19.886;2024-01-30T02:55:03;130.38;;;51.42;;
84780;SDS011;75011;50.086;19.886;2024-01-30T02:58:04;120.28;;;46.45;;
84780;SDS011;75011;50.086;19.886;2024-01-30T03:01:04;118.95;;;45.75;;
84780;SDS011;75011;50.086;19.886;2024-01-30T03:04:05;105.35;;;44.58;;
84780;SDS011;75011;50.086;19.886;2024-01-30T03:07:06;97.45;;;39.92;;
84780;SDS011;75011;50.086;19.886;2024-01-30T03:10:07;109.68;;;43.58;;
84780;SDS011;75011;50.086;19.886;2024-01-30T03:13:08;103.03;;;41.95;;
84780;SDS011;75011;50.086;19.886;2024-01-30T03:16:08;102.85;;;41.65;;
84780;SDS011;75011;50.086;19.886;2024-01-30T03:19:09;109.55;;;43.53;;
84780;SDS011;75011;50.086;19.886;2024-01-30T03:22:10;115.13;;;41.22;;
84780;SDS011;75011;50.086;19.886;2024-01-30T03:25:11;103.65;;;40.78;;
84780;SDS011;75011;50.086;19.886;2024-01-30T03:28:11;106.95;;;41.00;;
84780;SDS011;75011;50.086;19.886;2024-01-30T03:31:13;104.35;;;40.30;;
84780;SDS011;75011;50.086;19.886;2024-01-30T03:34:14;96.78;;;40.83;;
84780;SDS011;75011;50.086;19.886;2024-01-30T03:37:16;95.07;;;40.30;;
84780;SDS011;75011;50.086;19.886;2024-01-30T03:40:16;100.35;;;40.15;;
84780;SDS011;75011;50.086;19.886;2024-01-30T03:43:17;97.07;;;40.63;;
84780;SDS011;75011;50.086;19.886;2024-01-30T03:46:17;94.90;;;36.33;;
84780;SDS011;75011;50.086;19.886;2024-01-30T03:49:18;94.20;;;36.95;;
84780;SDS011;75011;50.086;19.886;2024-01-30T03:52:20;95.10;;;41.42;;
84780;SDS011;75011;50.086;19.886;2024-01-30T03:55:20;93.40;;;39.58;;
84780;SDS011;75011;50.086;19.886;2024-01-30T03:58:20;100.57;;;42.60;;
84780;SDS011;75011;50.086;19.886;2024-01-30T04:01:21;106.78;;;42.08;;
84780;SDS011;75011;50.086;19.886;2024-01-30T04:04:21;112.30;;;44.08;;
84780;SDS011;75011;50.086;19.886;2024-01-30T04:07:23;106.05;;;43.00;;
84780;SDS011;75011;50.086;19.886;2024-01-30T04:10:24;109.22;;;43.40;;
84780;SDS011;75011;50.086;19.886;2024-01-30T04:13:24;112.18;;;45.63;;
84780;SDS011;75011;50.086;19.886;2024-01-30T04:16:25;114.18;;;45.75;;
84780;SDS011;75011;50.086;19.886;2024-01-30T04:19:25;125.82;;;45.25;;
84780;SDS011;75011;50.086;19.886;2024-01-30T04:22:27;128.82;;;46.55;;
84780;SDS011;75011;50.086;19.886;2024-01-30T04:25:27;120.15;;;44.75;;
84780;SDS011;75011;50.086;19.886;2024-01-30T04:28:28;114.13;;;44.72;;
84780;SDS011;75011;50.086;19.886;2024-01-30T04:31:28;113.88;;;45.45;;
84780;SDS011;75011;50.086;19.886;2024-01-30T04:34:29;119.63;;;43.65;;
84780;SDS011;75011;50.086;19.886;2024-01-30T04:37:30;98.72;;;38.83;;
84780;SDS011;75011;50.086;19.886;2024-01-30T04:40:31;99.05;;;38.28;;
84780;SDS011;75011;50.086;19.886;2024-01-30T04:43:31;104.15;;;41.45;;
84780;SDS011;75011;50.086;19.886;2024-01-30T04:46:32;103.40;;;39.55;;
84780;SDS011;75011;50.086;19.886;2024-01-30T04:49:32;103.40;;;41.20;;
84780;SDS011;75011;50.086;19.886;2024-01-30T04:52:34;96.78;;;39.97;;
84780;SDS011;75011;50.086;19.886;2024-01-30T04:55:34;99.60;;;42.95;;
84780;SDS011;75011;50.086;19.886;2024-01-30T04:58:35;112.88;;;45.08;;
84780;SDS011;75011;50.086;19.886;2024-01-30T05:01:36;112.28;;;47.38;;
84780;SDS011;75011;50.086;19.886;2024-01-30T05:04:36;117.78;;;50.22;;
84780;SDS011;75011;50.086;19.886;2024-01-30T05:07:38;122.63;;;51.28;;
84780;SDS011;75011;50.086;19.886;2024-01-30T05:10:39;119.25;;;48.63;;
84780;SDS011;75011;50.086;19.886;2024-01-30T05:13:39;117.47;;;49.30;;
84780;SDS011;75011;50.086;19.886;2024-01-30T05:16:40;129.60;;;53.25;;
84780;SDS011;75011;50.086;19.886;2024-01-30T05:19:40;114.00;;;47.80;;
84780;SDS011;75011;50.086;19.886;2024-01-30T05:22:42;126.45;;;52.67;;
84780;SDS011;75011;50.086;19.886;2024-01-30T05:25:43;138.05;;;57.38;;
84780;SDS011;75011;50.086;19.886;2024-01-30T05:28:43;115.32;;;47.30;;
84780;SDS011;75011;50.086;19.886;2024-01-30T05:31:43;108.00;;;45.67;;
84780;SDS011;75011;50.086;19.886;2024-01-30T05:34:44;127.60;;;49.00;;
84780;SDS011;75011;50.086;19.886;2024-01-30T05:37:46;120.85;;;47.85;;
84780;SDS011;75011;50.086;19.886;2024-01-30T05:40:47;117.28;;;46.30;;
84780;SDS011;75011;50.086;19.886;2024-01-30T05:43:48;119.07;;;45.25;;
84780;SDS011;75011;50.086;19.886;2024-01-30T05:46:48;113.75;;;43.70;;
84780;SDS011;75011;50.086;19.886;2024-01-30T05:49:48;114.85;;;45.65;;
84780;SDS011;75011;50.086;19.886;2024-01-30T05:52:50;118.20;;;45.88;;
84780;SDS011;75011;50.086;19.886;2024-01-30T05:55:51;101.22;;;43.33;;
84780;SDS011;75011;50.086;19.886;2024-01-30T05:58:51;109.78;;;44.13;;
84780;SDS011;75011;50.086;19.886;2024-01-30T06:01:52;107.53;;;43.20;;
84780;SDS011;75011;50.086;19.886;2024-01-30T06:04:52;116.28;;;46.05;;
84780;SDS011;75011;50.086;19.886;2024-01-30T06:07:54;110.65;;;44.65;;
84780;SDS011;75011;50.086;19.886;2024-01-30T06:10:54;112.50;;;44.00;;
84780;SDS011;75011;50.086;19.886;2024-01-30T06:13:55;98.10;;;40.88;;
84780;SDS011;75011;50.086;19.886;2024-01-30T06:16:55;103.93;;;41.40;;
84780;SDS011;75011;50.086;19.886;2024-01-30T06:19:56;95.75;;;42.08;;
84780;SDS011;75011;50.086;19.886;2024-01-30T06:22:58;103.97;;;41.28;;
84780;SDS011;75011;50.086;19.886;2024-01-30T06:25:58;105.30;;;42.72;;
84780;SDS011;75011;50.086;19.886;2024-01-30T06:28:58;111.72;;;43.90;;
84780;SDS011;75011;50.086;19.886;2024-01-30T06:31:59;109.78;;;42.42;;
84780;SDS011;75011;50.086;19.886;2024-01-30T06:34:59;105.53;;;45.58;;
84780;SDS011;75011;50.086;19.886;2024-01-30T06:38:01;103.63;;;42.67;;
84780;SDS011;75011;50.086;19.886;2024-01-30T06:41:02;92.57;;;40.15;;
84780;SDS011;75011;50.086;19.886;2024-01-30T06:44:03;100.10;;;43.50;;
84780;SDS011;75011;50.086;19.886;2024-01-30T06:47:03;92.65;;;40.40;;
84780;SDS011;75011;50.086;19.886;2024-01-30T06:50:04;100.13;;;42.88;;
84780;SDS011;75011;50.086;19.886;2024-01-30T06:53:07;103.60;;;40.53;;
84780;SDS011;75011;50.086;19.886;2024-01-30T06:56:07;101.03;;;40.97;;
84780;SDS011;75011;50.086;19.886;2024-01-30T06:59:08;104.63;;;41.67;;
84780;SDS011;75011;50.086;19.886;2024-01-30T07:02:08;99.50;;;42.53;;
84780;SDS011;75011;50.086;19.886;2024-01-30T07:05:09;102.78;;;42.42;;
84780;SDS011;75011;50.086;19.886;2024-01-30T07:08:11;113.80;;;46.53;;
84780;SDS011;75011;50.086;19.886;2024-01-30T07:11:17;100.97;;;40.80;;
84780;SDS011;75011;50.086;19.886;2024-01-30T07:14:19;108.28;;;42.95;;
84780;SDS011;75011;50.086;19.886;2024-01-30T07:17:20;111.68;;;44.35;;
84780;SDS011;75011;50.086;19.886;2024-01-30T07:20:20;102.25;;;42.90;;
84780;SDS011;75011;50.086;19.886;2024-01-30T07:23:22;107.93;;;42.75;;
84780;SDS011;75011;50.086;19.886;2024-01-30T07:26:22;105.35;;;44.28;;
84780;SDS011;75011;50.086;19.886;2024-01-30T07:29:23;100.30;;;41.65;;
84780;SDS011;75011;50.086;19.886;2024-01-30T07:32:23;99.18;;;42.13;;
84780;SDS011;75011;50.086;19.886;2024-01-30T07:35:24;106.47;;;43.83;;
84780;SDS011;75011;50.086;19.886;2024-01-30T07:38:26;114.05;;;45.08;;
84780;SDS011;75011;50.086;19.886;2024-01-30T07:41:26;105.53;;;45.78;;
84780;SDS011;75011;50.086;19.886;2024-01-30T07:44:26;113.70;;;47.90;;
84780;SDS011;75011;50.086;19.886;2024-01-30T07:47:27;124.22;;;53.88;;
84780;SDS011;75011;50.086;19.886;2024-01-30T07:50:27;121.35;;;52.25;;
84780;SDS011;75011;50.086;19.886;2024-01-30T07:53:29;132.02;;;51.17;;
84780;SDS011;75011;50.086;19.886;2024-01-30T07:56:30;128.07;;;54.15;;
84780;SDS011;75011;50.086;19.886;2024-01-30T07:59:30;137.80;;;59.70;;
84780;SDS011;75011;50.086;19.886;2024-01-30T08:02:30;113.97;;;50.85;;
84780;SDS011;75011;50.086;19.886;2024-01-30T08:05:31;116.47;;;48.20;;
84780;SDS011;75011;50.086;19.886;2024-01-30T08:08:33;117.32;;;50.30;;
84780;SDS011;75011;50.086;19.886;2024-01-30T08:11:33;119.20;;;51.40;;
84780;SDS011;75011;50.086;19.886;2024-01-30T08:14:34;114.72;;;49.30;;
84780;SDS011;75011;50.086;19.886;2024-01-30T08:17:34;114.68;;;49.35;;
84780;SDS011;75011;50.086;19.886;2024-01-30T08:20:35;123.60;;;52.83;;
84780;SDS011;75011;50.086;19.886;2024-01-30T08:23:37;115.30;;;49.17;;
84780;SDS011;75011;50.086;19.886;2024-01-30T08:26:38;111.75;;;45.70;;
84780;SDS011;75011;50.086;19.886;2024-01-30T08:29:38;102.78;;;45.03;;
84780;SDS011;75011;50.086;19.886;2024-01-30T08:32:39;100.80;;;43.92;;
84780;SDS011;75011;50.086;19.886;2024-01-30T08:35:39;101.90;;;43.30;;
84780;SDS011;75011;50.086;19.886;2024-01-30T08:38:41;99.97;;;43.20;;
84780;SDS011;75011;50.086;19.886;2024-01-30T08:41:41;99.50;;;44.60;;
84780;SDS011;75011;50.086;19.886;2024-01-30T08:44:42;103.07;;;47.10;;
84780;SDS011;75011;50.086;19.886;2024-01-30T08:47:42;99.20;;;46.20;;
84780;SDS011;75011;50.086;19.886;2024-01-30T08:50:43;89.63;;;43.05;;
84780;SDS011;75011;50.086;19.886;2024-01-30T08:53:45;87.00;;;42.42;;
84780;SDS011;75011;50.086;19.886;2024-01-30T08:56:45;100.88;;;45.03;;
84780;SDS011;75011;50.086;19.886;2024-01-30T08:59:46;93.45;;;42.40;;
84780;SDS011;75011;50.086;19.886;2024-01-30T09:02:46;96.95;;;46.28;;
84780;SDS011;75011;50.086;19.886;2024-01-30T09:05:47;87.93;;;42.40;;
84780;SDS011;75011;50.086;19.886;2024-01-30T09:08:48;87.55;;;42.47;;
84780;SDS011;75011;50.086;19.886;2024-01-30T09:11:49;91.55;;;42.53;;
84780;SDS011;75011;50.086;19.886;2024-01-30T09:14:49;75.28;;;37.75;;
84780;SDS011;75011;50.086;19.886;2024-01-30T09:17:50;83.03;;;38.22;;
84780;SDS011;75011;50.086;19.886;2024-01-30T09:20:50;78.93;;;37.85;;
84780;SDS011;75011;50.086;19.886;2024-01-30T09:23:53;78.30;;;38.92;;
84780;SDS011;75011;50.086;19.886;2024-01-30T09:26:54;84.20;;;40.10;;
84780;SDS011;75011;50.086;19.886;2024-01-30T09:29:55;83.63;;;38.35;;
84780;SDS011;75011;50.086;19.886;2024-01-30T09:32:55;75.78;;;36.83;;
84780;SDS011;75011;50.086;19.886;2024-01-30T09:35:56;75.72;;;36.95;;
84780;SDS011;75011;50.086;19.886;2024-01-30T09:38:58;84.80;;;37.92;;
84780;SDS011;75011;50.086;19.886;2024-01-30T09:42:01;77.45;;;37.50;;
84780;SDS011;75011;50.086;19.886;2024-01-30T09:45:05;65.57;;;34.42;;
84780;SDS011;75011;50.086;19.886;2024-01-30T09:48:06;50.53;;;25.48;;
84780;SDS011;75011;50.086;19.886;2024-01-30T09:51:07;58.75;;;30.85;;
84780;SDS011;75011;50.086;19.886;2024-01-30T09:54:09;47.58;;;21.83;;
84780;SDS011;75011;50.086;19.886;2024-01-30T09:57:10;52.90;;;24.50;;
84780;SDS011;75011;50.086;19.886;2024-01-30T10:00:21;48.67;;;26.67;;
84780;SDS011;75011;50.086;19.886;2024-01-30T10:03:21;43.38;;;22.70;;
84780;SDS011;75011;50.086;19.886;2024-01-30T10:06:22;32.97;;;20.17;;
84780;SDS011;75011;50.086;19.886;2024-01-30T10:09:24;30.48;;;16.50;;
84780;SDS011;75011;50.086;19.886;2024-01-30T10:12:25;33.58;;;17.25;;
84780;SDS011;75011;50.086;19.886;2024-01-30T10:15:28;31.70;;;17.40;;
84780;SDS011;75011;50.086;19.886;2024-01-30T10:18:28;30.75;;;14.48;;
84780;SDS011;75011;50.086;19.886;2024-01-30T10:21:29;29.98;;;16.45;;
84780;SDS011;75011;50.086;19.886;2024-01-30T10:24:30;34.50;;;17.65;;
84780;SDS011;75011;50.086;19.886;2024-01-30T10:27:31;32.03;;;18.23;;
84780;SDS011;75011;50.086;19.886;2024-01-30T10:30:33;35.45;;;21.02;;
84780;SDS011;75011;50.086;19.886;2024-01-30T10:33:33;32.00;;;17.80;;
84780;SDS011;75011;50.086;19.886;2024-01-30T10:36:35;25.92;;;12.95;;
84780;SDS011;75011;50.086;19.886;2024-01-30T10:39:40;28.48;;;15.90;;
84780;SDS011;75011;50.086;19.886;2024-01-30T10:42:42;36.42;;;17.52;;
84780;SDS011;75011;50.086;19.886;2024-01-30T10:45:45;32.78;;;17.48;;
84780;SDS011;75011;50.086;19.886;2024-01-30T10:48:50;33.03;;;17.98;;
84780;SDS011;75011;50.086;19.886;2024-01-30T10:51:56;29.65;;;16.80;;
84780;SDS011;75011;50.086;19.886;2024-01-30T10:54:58;25.27;;;13.10;;
84780;SDS011;75011;50.086;19.886;2024-01-30T10:57:59;28.15;;;15.52;;
84780;SDS011;75011;50.086;19.886;2024-01-30T11:01:01;26.85;;;14.43;;
84780;SDS011;75011;50.086;19.886;2024-01-30T11:04:03;31.70;;;15.30;;
84780;SDS011;75011;50.086;19.886;2024-01-30T11:07:13;25.75;;;15.52;;
84780;SDS011;75011;50.086;19.886;2024-01-30T11:10:14;29.02;;;15.77;;
84780;SDS011;75011;50.086;19.886;2024-01-30T11:13:15;26.52;;;13.32;;
84780;SDS011;75011;50.086;19.886;2024-01-30T11:16:17;22.48;;;11.30;;
84780;SDS011;75011;50.086;19.886;2024-01-30T11:19:23;26.33;;;12.48;;
84780;SDS011;75011;50.086;19.886;2024-01-30T11:22:24;25.20;;;12.13;;
84780;SDS011;75011;50.086;19.886;2024-01-30T11:25:24;19.95;;;11.15;;
84780;SDS011;75011;50.086;19.886;2024-01-30T11:28:25;21.30;;;11.77;;
84780;SDS011;75011;50.086;19.886;2024-01-30T11:31:34;24.38;;;12.18;;
84780;SDS011;75011;50.086;19.886;2024-01-30T11:34:34;23.75;;;12.75;;
84780;SDS011;75011;50.086;19.886;2024-01-30T11:37:40;21.08;;;10.48;;
84780;SDS011;75011;50.086;19.886;2024-01-30T11:40:43;18.85;;;9.55;;
84780;SDS011;75011;50.086;19.886;2024-01-30T11:43:50;17.95;;;10.57;;
84780;SDS011;75011;50.086;19.886;2024-01-30T11:46:53;17.63;;;8.63;;
84780;SDS011;75011;50.086;19.886;2024-01-30T11:49:53;16.60;;;8.93;;
84780;SDS011;75011;50.086;19.886;2024-01-30T11:52:54;16.40;;;9.02;;
84780;SDS011;75011;50.086;19.886;2024-01-30T11:55:54;19.30;;;9.25;;
84780;SDS011;75011;50.086;19.886;2024-01-30T11:58:55;18.75;;;10.35;;
84780;SDS011;75011;50.086;19.886;2024-01-30T12:01:57;18.00;;;10.38;;
84780;SDS011;75011;50.086;19.886;2024-01-30T12:04:57;15.55;;;9.38;;
84780;SDS011;75011;50.086;19.886;2024-01-30T12:07:58;18.23;;;10.18;;
84780;SDS011;75011;50.086;19.886;2024-01-30T12:10:58;15.48;;;9.68;;
84780;SDS011;75011;50.086;19.886;2024-01-30T12:13:59;17.92;;;11.23;;
84780;SDS011;75011;50.086;19.886;2024-01-30T12:17:01;21.02;;;11.55;;
84780;SDS011;75011;50.086;19.886;2024-01-30T12:20:05;19.80;;;11.02;;
84780;SDS011;75011;50.086;19.886;2024-01-30T12:23:06;19.77;;;11.25;;
84780;SDS011;75011;50.086;19.886;2024-01-30T12:26:06;21.77;;;12.65;;
84780;SDS011;75011;50.086;19.886;2024-01-30T12:29:07;21.35;;;12.27;;
84780;SDS011;75011;50.086;19.886;2024-01-30T12:32:08;24.15;;;12.82;;
84780;SDS011;75011;50.086;19.886;2024-01-30T12:35:14;25.50;;;13.35;;
84780;SDS011;75011;50.086;19.886;2024-01-30T12:38:16;25.02;;;12.43;;
84780;SDS011;75011;50.086;19.886;2024-01-30T12:41:16;22.65;;;12.27;;
84780;SDS011;75011;50.086;19.886;2024-01-30T12:44:17;23.90;;;11.82;;
84780;SDS011;75011;50.086;19.886;2024-01-30T12:47:20;19.80;;;12.88;;
84780;SDS011;75011;50.086;19.886;2024-01-30T12:50:21;23.70;;;11.63;;
84780;SDS011;75011;50.086;19.886;2024-01-30T12:53:21;21.15;;;11.73;;
84780;SDS011;75011;50.086;19.886;2024-01-30T12:56:22;17.88;;;10.15;;
84780;SDS011;75011;50.086;19.886;2024-01-30T12:59:22;20.15;;;10.25;;
84780;SDS011;75011;50.086;19.886;2024-01-30T13:02:24;17.95;;;10.25;;
84780;SDS011;75011;50.086;19.886;2024-01-30T13:05:25;18.95;;;10.63;;
84780;SDS011;75011;50.086;19.886;2024-01-30T13:08:25;23.17;;;11.05;;
84780;SDS011;75011;50.086;19.886;2024-01-30T13:11:26;18.52;;;10.65;;
84780;SDS011;75011;50.086;19.886;2024-01-30T13:14:26;18.38;;;10.15;;
84780;SDS011;75011;50.086;19.886;2024-01-30T13:17:28;16.55;;;10.02;;
84780;SDS011;75011;50.086;19.886;2024-01-30T13:20:29;17.55;;;10.85;;
84780;SDS011;75011;50.086;19.886;2024-01-30T13:23:29;15.35;;;10.02;;
84780;SDS011;75011;50.086;19.886;2024-01-30T13:26:31;16.65;;;10.80;;
84780;SDS011;75011;50.086;19.886;2024-01-30T13:29:32;18.38;;;10.82;;
84780;SDS011;75011;50.086;19.886;2024-01-30T13:32:34;19.00;;;11.75;;
84780;SDS011;75011;50.086;19.886;2024-01-30T13:35:34;20.02;;;11.93;;
84780;SDS011;75011;50.086;19.886;2024-01-30T13:38:34;21.55;;;12.70;;
84780;SDS011;75011;50.086;19.886;2024-01-30T13:41:35;20.13;;;12.65;;
84780;SDS011;75011;50.086;19.886;2024-01-30T13:44:35;20.35;;;12.00;;
84780;SDS011;75011;50.086;19.886;2024-01-30T13:47:37;17.80;;;11.07;;
84780;SDS011;75011;50.086;19.886;2024-01-30T13:50:38;17.67;;;11.68;;
84780;SDS011;75011;50.086;19.886;2024-01-30T13:53:38;20.73;;;12.70;;
84780;SDS011;75011;50.086;19.886;2024-01-30T13:56:39;17.77;;;12.05;;
84780;SDS011;75011;50.086;19.886;2024-01-30T13:59:39;19.63;;;12.30;;
84780;SDS011;75011;50.086;19.886;2024-01-30T14:02:41;19.27;;;11.85;;
84780;SDS011;75011;50.086;19.886;2024-01-30T14:05:41;17.63;;;12.25;;
84780;SDS011;75011;50.086;19.886;2024-01-30T14:08:42;17.40;;;9.85;;
84780;SDS011;75011;50.086;19.886;2024-01-30T14:11:42;18.65;;;10.75;;
84780;SDS011;75011;50.086;19.886;2024-01-30T14:14:43;19.15;;;12.38;;
84780;SDS011;75011;50.086;19.886;2024-01-30T14:17:45;17.75;;;10.88;;
84780;SDS011;75011;50.086;19.886;2024-01-30T14:20:45;18.15;;;10.70;;
84780;SDS011;75011;50.086;19.886;2024-01-30T14:23:46;18.80;;;11.88;;
84780;SDS011;75011;50.086;19.886;2024-01-30T14:26:46;21.60;;;11.85;;
84780;SDS011;75011;50.086;19.886;2024-01-30T14:29:47;20.45;;;11.90;;
84780;SDS011;75011;50.086;19.886;2024-01-30T14:32:48;20.95;;;12.35;;
84780;SDS011;75011;50.086;19.886;2024-01-30T14:35:49;17.83;;;11.45;;
84780;SDS011;75011;50.086;19.886;2024-01-30T14:38:50;22.05;;;11.90;;
84780;SDS011;75011;50.086;19.886;2024-01-30T14:41:50;19.52;;;12.60;;
84780;SDS011;75011;50.086;19.886;2024-01-30T14:44:51;19.33;;;11.95;;
84780;SDS011;75011;50.086;19.886;2024-01-30T14:47:52;21.45;;;13.05;;
84780;SDS011;75011;50.086;19.886;2024-01-30T14:50:53;25.02;;;12.63;;
84780;SDS011;75011;50.086;19.886;2024-01-30T14:53:53;24.48;;;14.45;;
84780;SDS011;75011;50.086;19.886;2024-01-30T14:56:54;21.52;;;11.45;;
84780;SDS011;75011;50.086;19.886;2024-01-30T14:59:54;22.92;;;13.98;;
84780;SDS011;75011;50.086;19.886;2024-01-30T15:02:56;18.90;;;12.63;;
84780;SDS011;75011;50.086;19.886;2024-01-30T15:05:57;24.17;;;14.38;;
84780;SDS011;75011;50.086;19.886;2024-01-30T15:08:57;26.13;;;14.88;;
84780;SDS011;75011;50.086;19.886;2024-01-30T15:11:58;25.65;;;13.60;;
84780;SDS011;75011;50.086;19.886;2024-01-30T15:14:58;36.95;;;16.23;;
84780;SDS011;75011;50.086;19.886;2024-01-30T15:18:00;24.98;;;14.57;;
84780;SDS011;75011;50.086;19.886;2024-01-30T15:21:00;26.45;;;13.65;;
84780;SDS011;75011;50.086;19.886;2024-01-30T15:24:01;27.83;;;14.30;;
84780;SDS011;75011;50.086;19.886;2024-01-30T15:27:02;23.58;;;13.77;;
84780;SDS011;75011;50.086;19.886;2024-01-30T15:30:03;25.95;;;13.80;;
84780;SDS011;75011;50.086;19.886;2024-01-30T15:33:06;25.55;;;13.63;;
84780;SDS011;75011;50.086;19.886;2024-01-30T15:36:07;26.27;;;13.00;;
84780;SDS011;75011;50.086;19.886;2024-01-30T15:39:07;27.38;;;13.40;;
84780;SDS011;75011;50.086;19.886;2024-01-30T15:42:08;31.15;;;14.07;;
84780;SDS011;75011;50.086;19.886;2024-01-30T15:45:08;25.75;;;13.77;;
84780;SDS011;75011;50.086;19.886;2024-01-30T15:48:10;30.60;;;14.35;;
84780;SDS011;75011;50.086;19.886;2024-01-30T15:51:11;29.92;;;13.25;;
84780;SDS011;75011;50.086;19.886;2024-01-30T15:54:11;33.15;;;14.23;;
84780;SDS011;75011;50.086;19.886;2024-01-30T15:57:12;29.65;;;13.30;;
84780;SDS011;75011;50.086;19.886;2024-01-30T16:00:13;28.23;;;12.85;;
84780;SDS011;75011;50.086;19.886;2024-01-30T16:03:15;27.35;;;12.18;;
84780;SDS011;75011;50.086;19.886;2024-01-30T16:06:16;26.80;;;13.13;;
84780;SDS011;75011;50.086;19.886;2024-01-30T16:09:17;29.27;;;15.27;;
84780;SDS011;75011;50.086;19.886;2024-01-30T16:12:17;32.33;;;15.50;;
84780;SDS011;75011;50.086;19.886;2024-01-30T16:15:18;32.25;;;17.35;;
84780;SDS011;75011;50.086;19.886;2024-01-30T16:18:20;30.63;;;13.90;;
84780;SDS011;75011;50.086;19.886;2024-01-30T16:21:20;26.55;;;12.55;;
84780;SDS011;75011;50.086;19.886;2024-01-30T16:24:21;33.28;;;18.67;;
84780;SDS011;75011;50.086;19.886;2024-01-30T16:27:21;33.47;;;17.15;;
84780;SDS011;75011;50.086;19.886;2024-01-30T16:30:21;31.05;;;16.77;;
84780;SDS011;75011;50.086;19.886;2024-01-30T16:33:23;33.95;;;18.30;;
84780;SDS011;75011;50.086;19.886;2024-01-30T16:36:24;31.45;;;16.48;;
84780;SDS011;75011;50.086;19.886;2024-01-30T16:39:24;30.83;;;16.00;;
84780;SDS011;75011;50.086;19.886;2024-01-30T16:42:24;44.20;;;21.30;;
84780;SDS011;75011;50.086;19.886;2024-01-30T16:45:25;36.47;;;19.73;;
84780;SDS011;75011;50.086;19.886;2024-01-30T16:48:27;34.67;;;18.73;;
84780;SDS011;75011;50.086;19.886;2024-01-30T16:51:27;37.83;;;19.38;;
84780;SDS011;75011;50.086;19.886;2024-01-30T16:54:28;30.73;;;15.45;;
84780;SDS011;75011;50.086;19.886;2024-01-30T16:57:28;33.97;;;16.15;;
84780;SDS011;75011;50.086;19.886;2024-01-30T17:00:28;39.17;;;17.95;;
84780;SDS011;75011;50.086;19.886;2024-01-30T17:03:30;34.35;;;18.33;;
84780;SDS011;75011;50.086;19.886;2024-01-30T17:06:31;35.78;;;17.85;;
84780;SDS011;75011;50.086;19.886;2024-01-30T17:09:31;34.35;;;17.40;;
84780;SDS011;75011;50.086;19.886;2024-01-30T17:12:32;37.67;;;19.13;;
84780;SDS011;75011;50.086;19.886;2024-01-30T17:15:32;38.28;;;19.65;;